sensor_id;sensor_type;location;lat;lon;timestamp;P1;durP1;ratioP1;P2;durP2;ratioP2
823;SDS011;373;49.342;8.146;2022-09-14T00:01:31;2.83;;;2.60;;
823;SDS011;373;49.342;8.146;2022-09-14T00:04:00;3.17;;;2.85;;
823;SDS011;373;49.342;8.146;2022-09-14T00:06:29;3.35;;;2.72;;
823;SDS011;373;49.342;8.146;2022-09-14T00:08:57;3.42;;;2.60;;
823;SDS011;373;49.342;8.146;2022-09-14T00:11:26;2.70;;;2.45;;
823;SDS011;373;49.342;8.146;2022-09-14T00:13:56;3.20;;;2.38;;
823;SDS011;373;49.342;8.146;2022-09-14T00:16:28;2.50;;;2.30;;
823;SDS011;373;49.342;8.146;2022-09-14T00:18:58;3.40;;;3.10;;
823;SDS011;373;49.342;8.146;2022-09-14T00:21:29;3.97;;;2.67;;
823;SDS011;373;49.342;8.146;2022-09-14T00:23:57;3.63;;;2.53;;
823;SDS011;373;49.342;8.146;2022-09-14T00:26:24;3.63;;;2.60;;
823;SDS011;373;49.342;8.146;2022-09-14T00:28:54;3.05;;;2.45;;
823;SDS011;373;49.342;8.146;2022-09-14T00:31:23;3.92;;;2.60;;
823;SDS011;373;49.342;8.146;2022-09-14T00:33:51;3.20;;;2.80;;
823;SDS011;373;49.342;8.146;2022-09-14T00:36:19;6.07;;;3.00;;
823;SDS011;373;49.342;8.146;2022-09-14T00:38:48;2.80;;;2.25;;
823;SDS011;373;49.342;8.146;2022-09-14T00:41:16;3.92;;;2.60;;
823;SDS011;373;49.342;8.146;2022-09-14T00:43:53;5.28;;;2.42;;
823;SDS011;373;49.342;8.146;2022-09-14T00:46:23;2.85;;;2.65;;
823;SDS011;373;49.342;8.146;2022-09-14T00:48:52;6.40;;;3.22;;
823;SDS011;373;49.342;8.146;2022-09-14T00:51:20;3.63;;;3.03;;
823;SDS011;373;49.342;8.146;2022-09-14T00:53:47;2.38;;;2.15;;
823;SDS011;373;49.342;8.146;2022-09-14T00:56:15;5.53;;;2.78;;
823;SDS011;373;49.342;8.146;2022-09-14T00:58:44;4.70;;;2.83;;
823;SDS011;373;49.342;8.146;2022-09-14T01:01:13;3.35;;;2.40;;
823;SDS011;373;49.342;8.146;2022-09-14T01:03:42;2.47;;;2.10;;
823;SDS011;373;49.342;8.146;2022-09-14T01:06:11;2.75;;;2.50;;
823;SDS011;373;49.342;8.146;2022-09-14T01:08:53;5.72;;;2.85;;
823;SDS011;373;49.342;8.146;2022-09-14T01:11:33;3.35;;;2.60;;
823;SDS011;373;49.342;8.146;2022-09-14T01:14:10;3.08;;;2.53;;
823;SDS011;373;49.342;8.146;2022-09-14T01:16:46;3.67;;;2.83;;
823;SDS011;373;49.342;8.146;2022-09-14T01:19:22;3.85;;;2.78;;
823;SDS011;373;49.342;8.146;2022-09-14T01:21:56;4.50;;;2.97;;
823;SDS011;373;49.342;8.146;2022-09-14T01:24:38;3.33;;;2.55;;
823;SDS011;373;49.342;8.146;2022-09-14T01:27:20;3.03;;;2.70;;
823;SDS011;373;49.342;8.146;2022-09-14T01:29:58;4.03;;;2.55;;
823;SDS011;373;49.342;8.146;2022-09-14T01:32:30;4.03;;;2.30;;
823;SDS011;373;49.342;8.146;2022-09-14T01:35:02;2.40;;;2.10;;
823;SDS011;373;49.342;8.146;2022-09-14T01:37:35;3.00;;;2.35;;
823;SDS011;373;49.342;8.146;2022-09-14T01:40:08;3.58;;;2.45;;
823;SDS011;373;49.342;8.146;2022-09-14T01:42:44;3.67;;;2.30;;
823;SDS011;373;49.342;8.146;2022-09-14T01:45:15;2.25;;;2.03;;
823;SDS011;373;49.342;8.146;2022-09-14T01:47:45;3.85;;;2.00;;
823;SDS011;373;49.342;8.146;2022-09-14T01:50:17;4.15;;;2.60;;
823;SDS011;373;49.342;8.146;2022-09-14T01:52:49;3.83;;;2.30;;
823;SDS011;373;49.342;8.146;2022-09-14T01:55:22;3.63;;;2.70;;
823;SDS011;373;49.342;8.146;2022-09-14T01:57:53;4.75;;;2.83;;
823;SDS011;373;49.342;8.146;2022-09-14T02:00:27;3.33;;;2.58;;
823;SDS011;373;49.342;8.146;2022-09-14T02:02:56;5.53;;;3.30;;
823;SDS011;373;49.342;8.146;2022-09-14T02:05:29;4.47;;;3.15;;
823;SDS011;373;49.342;8.146;2022-09-14T02:08:00;4.97;;;2.60;;
823;SDS011;373;49.342;8.146;2022-09-14T02:10:27;4.45;;;3.03;;
823;SDS011;373;49.342;8.146;2022-09-14T02:12:56;3.58;;;2.85;;
823;SDS011;373;49.342;8.146;2022-09-14T02:15:23;2.83;;;2.63;;
823;SDS011;373;49.342;8.146;2022-09-14T02:17:51;4.22;;;3.03;;
823;SDS011;373;49.342;8.146;2022-09-14T02:20:20;5.50;;;2.95;;
823;SDS011;373;49.342;8.146;2022-09-14T02:22:53;7.65;;;3.13;;
823;SDS011;373;49.342;8.146;2022-09-14T02:25:20;4.30;;;2.92;;
823;SDS011;373;49.342;8.146;2022-09-14T02:27:47;4.88;;;2.40;;
823;SDS011;373;49.342;8.146;2022-09-14T02:30:18;4.95;;;3.25;;
823;SDS011;373;49.342;8.146;2022-09-14T02:32:50;3.13;;;2.47;;
823;SDS011;373;49.342;8.146;2022-09-14T02:35:29;3.63;;;2.65;;
823;SDS011;373;49.342;8.146;2022-09-14T02:38:03;4.35;;;2.63;;
823;SDS011;373;49.342;8.146;2022-09-14T02:40:39;4.25;;;2.50;;
823;SDS011;373;49.342;8.146;2022-09-14T02:43:18;3.72;;;2.58;;
823;SDS011;373;49.342;8.146;2022-09-14T02:45:55;5.78;;;2.47;;
823;SDS011;373;49.342;8.146;2022-09-14T02:48:32;3.00;;;2.20;;
823;SDS011;373;49.342;8.146;2022-09-14T02:51:06;4.80;;;2.60;;
823;SDS011;373;49.342;8.146;2022-09-14T02:53:38;3.13;;;2.83;;
823;SDS011;373;49.342;8.146;2022-09-14T02:56:11;4.13;;;2.42;;
823;SDS011;373;49.342;8.146;2022-09-14T02:58:40;3.20;;;2.53;;
823;SDS011;373;49.342;8.146;2022-09-14T03:01:10;3.80;;;2.97;;
823;SDS011;373;49.342;8.146;2022-09-14T03:03:38;3.67;;;2.38;;
823;SDS011;373;49.342;8.146;2022-09-14T03:06:06;3.88;;;2.13;;
823;SDS011;373;49.342;8.146;2022-09-14T03:08:33;3.97;;;2.28;;
823;SDS011;373;49.342;8.146;2022-09-14T03:11:01;4.13;;;2.60;;
823;SDS011;373;49.342;8.146;2022-09-14T03:13:28;2.33;;;2.08;;
823;SDS011;373;49.342;8.146;2022-09-14T03:15:55;3.92;;;2.47;;
823;SDS011;373;49.342;8.146;2022-09-14T03:18:23;4.13;;;2.50;;
823;SDS011;373;49.342;8.146;2022-09-14T03:20:51;4.07;;;2.60;;
823;SDS011;373;49.342;8.146;2022-09-14T03:23:17;2.88;;;2.17;;
823;SDS011;373;49.342;8.146;2022-09-14T03:25:45;2.20;;;1.98;;
823;SDS011;373;49.342;8.146;2022-09-14T03:28:12;2.88;;;2.38;;
823;SDS011;373;49.342;8.146;2022-09-14T03:30:39;4.10;;;2.45;;
823;SDS011;373;49.342;8.146;2022-09-14T03:33:06;4.70;;;2.45;;
823;SDS011;373;49.342;8.146;2022-09-14T03:35:34;3.05;;;2.05;;
823;SDS011;373;49.342;8.146;2022-09-14T03:38:01;3.72;;;2.00;;
823;SDS011;373;49.342;8.146;2022-09-14T03:40:28;3.08;;;1.88;;
823;SDS011;373;49.342;8.146;2022-09-14T03:42:55;3.30;;;2.63;;
823;SDS011;373;49.342;8.146;2022-09-14T03:45:22;3.22;;;2.60;;
823;SDS011;373;49.342;8.146;2022-09-14T03:47:49;5.00;;;2.83;;
823;SDS011;373;49.342;8.146;2022-09-14T03:50:17;6.07;;;2.53;;
823;SDS011;373;49.342;8.146;2022-09-14T03:52:46;6.82;;;2.80;;
823;SDS011;373;49.342;8.146;2022-09-14T03:55:13;3.78;;;2.20;;
823;SDS011;373;49.342;8.146;2022-09-14T03:57:40;3.83;;;2.75;;
823;SDS011;373;49.342;8.146;2022-09-14T04:00:08;3.40;;;2.45;;
823;SDS011;373;49.342;8.146;2022-09-14T04:02:39;4.90;;;3.08;;
823;SDS011;373;49.342;8.146;2022-09-14T04:05:06;3.58;;;2.80;;
823;SDS011;373;49.342;8.146;2022-09-14T04:07:34;3.70;;;2.60;;
823;SDS011;373;49.342;8.146;2022-09-14T04:10:03;3.63;;;2.50;;
823;SDS011;373;49.342;8.146;2022-09-14T04:12:32;5.68;;;2.65;;
823;SDS011;373;49.342;8.146;2022-09-14T04:15:00;4.95;;;2.30;;
823;SDS011;373;49.342;8.146;2022-09-14T04:17:27;2.78;;;2.20;;
823;SDS011;373;49.342;8.146;2022-09-14T04:19:55;5.65;;;3.00;;
823;SDS011;373;49.342;8.146;2022-09-14T04:22:22;4.07;;;2.95;;
823;SDS011;373;49.342;8.146;2022-09-14T04:24:49;3.13;;;2.50;;
823;SDS011;373;49.342;8.146;2022-09-14T04:27:17;3.40;;;2.83;;
823;SDS011;373;49.342;8.146;2022-09-14T04:29:44;4.28;;;2.78;;
823;SDS011;373;49.342;8.146;2022-09-14T04:32:14;2.72;;;2.47;;
823;SDS011;373;49.342;8.146;2022-09-14T04:34:41;3.50;;;2.45;;
823;SDS011;373;49.342;8.146;2022-09-14T04:37:08;3.10;;;2.80;;
823;SDS011;373;49.342;8.146;2022-09-14T04:39:35;4.03;;;2.88;;
823;SDS011;373;49.342;8.146;2022-09-14T04:42:04;3.28;;;2.63;;
823;SDS011;373;49.342;8.146;2022-09-14T04:44:33;3.03;;;2.58;;
823;SDS011;373;49.342;8.146;2022-09-14T04:47:00;3.22;;;2.50;;
823;SDS011;373;49.342;8.146;2022-09-14T04:49:27;3.28;;;2.97;;
823;SDS011;373;49.342;8.146;2022-09-14T04:51:55;3.13;;;2.72;;
823;SDS011;373;49.342;8.146;2022-09-14T04:54:22;3.17;;;2.72;;
823;SDS011;373;49.342;8.146;2022-09-14T04:56:49;5.10;;;3.22;;
823;SDS011;373;49.342;8.146;2022-09-14T04:59:16;4.13;;;3.20;;
823;SDS011;373;49.342;8.146;2022-09-14T05:01:44;3.03;;;2.72;;
823;SDS011;373;49.342;8.146;2022-09-14T05:04:12;5.25;;;3.00;;
823;SDS011;373;49.342;8.146;2022-09-14T05:06:40;3.75;;;2.60;;
823;SDS011;373;49.342;8.146;2022-09-14T05:09:09;3.70;;;2.70;;
823;SDS011;373;49.342;8.146;2022-09-14T05:11:38;4.32;;;2.47;;
823;SDS011;373;49.342;8.146;2022-09-14T05:14:05;4.90;;;3.95;;
823;SDS011;373;49.342;8.146;2022-09-14T05:16:33;4.93;;;3.88;;
823;SDS011;373;49.342;8.146;2022-09-14T05:19:05;5.40;;;4.13;;
823;SDS011;373;49.342;8.146;2022-09-14T05:21:34;5.53;;;4.30;;
823;SDS011;373;49.342;8.146;2022-09-14T05:24:04;5.72;;;3.83;;
823;SDS011;373;49.342;8.146;2022-09-14T05:26:36;5.65;;;3.75;;
823;SDS011;373;49.342;8.146;2022-09-14T05:29:04;6.50;;;4.28;;
823;SDS011;373;49.342;8.146;2022-09-14T05:31:31;5.28;;;3.67;;
823;SDS011;373;49.342;8.146;2022-09-14T05:33:59;6.25;;;4.03;;
823;SDS011;373;49.342;8.146;2022-09-14T05:36:27;5.22;;;4.50;;
823;SDS011;373;49.342;8.146;2022-09-14T05:38:54;5.55;;;4.97;;
823;SDS011;373;49.342;8.146;2022-09-14T05:41:23;11.18;;;5.97;;
823;SDS011;373;49.342;8.146;2022-09-14T05:43:50;6.10;;;5.53;;
823;SDS011;373;49.342;8.146;2022-09-14T05:46:17;7.03;;;5.38;;
823;SDS011;373;49.342;8.146;2022-09-14T05:48:45;5.88;;;5.28;;
823;SDS011;373;49.342;8.146;2022-09-14T05:51:16;5.82;;;5.22;;
823;SDS011;373;49.342;8.146;2022-09-14T05:53:47;6.63;;;5.95;;
823;SDS011;373;49.342;8.146;2022-09-14T05:56:14;5.82;;;5.22;;
823;SDS011;373;49.342;8.146;2022-09-14T05:58:42;6.13;;;5.10;;
823;SDS011;373;49.342;8.146;2022-09-14T06:01:10;5.50;;;5.00;;
823;SDS011;373;49.342;8.146;2022-09-14T06:03:39;5.43;;;4.93;;
823;SDS011;373;49.342;8.146;2022-09-14T06:06:08;6.32;;;5.57;;
823;SDS011;373;49.342;8.146;2022-09-14T06:08:36;6.55;;;5.50;;
823;SDS011;373;49.342;8.146;2022-09-14T06:11:06;5.47;;;4.95;;
823;SDS011;373;49.342;8.146;2022-09-14T06:13:34;7.15;;;5.57;;
823;SDS011;373;49.342;8.146;2022-09-14T06:16:02;5.70;;;5.25;;
823;SDS011;373;49.342;8.146;2022-09-14T06:18:30;7.68;;;6.03;;
823;SDS011;373;49.342;8.146;2022-09-14T06:20:58;6.20;;;5.28;;
823;SDS011;373;49.342;8.146;2022-09-14T06:23:25;5.57;;;5.05;;
823;SDS011;373;49.342;8.146;2022-09-14T06:25:53;7.25;;;4.80;;
823;SDS011;373;49.342;8.146;2022-09-14T06:28:22;5.95;;;5.35;;
823;SDS011;373;49.342;8.146;2022-09-14T06:30:50;7.38;;;5.75;;
823;SDS011;373;49.342;8.146;2022-09-14T06:33:18;6.47;;;5.88;;
823;SDS011;373;49.342;8.146;2022-09-14T06:35:52;7.47;;;6.05;;
823;SDS011;373;49.342;8.146;2022-09-14T06:38:21;8.00;;;6.75;;
823;SDS011;373;49.342;8.146;2022-09-14T06:40:51;7.10;;;5.53;;
823;SDS011;373;49.342;8.146;2022-09-14T06:43:21;6.45;;;5.85;;
823;SDS011;373;49.342;8.146;2022-09-14T06:45:56;7.85;;;5.50;;
823;SDS011;373;49.342;8.146;2022-09-14T06:48:24;4.40;;;4.00;;
823;SDS011;373;49.342;8.146;2022-09-14T06:50:52;6.47;;;4.43;;
823;SDS011;373;49.342;8.146;2022-09-14T06:53:19;6.07;;;4.75;;
823;SDS011;373;49.342;8.146;2022-09-14T06:55:46;5.95;;;5.05;;
823;SDS011;373;49.342;8.146;2022-09-14T06:58:13;6.93;;;6.20;;
823;SDS011;373;49.342;8.146;2022-09-14T07:00:41;6.90;;;5.75;;
823;SDS011;373;49.342;8.146;2022-09-14T07:03:09;9.98;;;7.97;;
823;SDS011;373;49.342;8.146;2022-09-14T07:05:36;6.15;;;5.55;;
823;SDS011;373;49.342;8.146;2022-09-14T07:08:03;11.20;;;8.88;;
823;SDS011;373;49.342;8.146;2022-09-14T07:10:30;7.80;;;7.05;;
823;SDS011;373;49.342;8.146;2022-09-14T07:12:57;10.13;;;7.40;;
823;SDS011;373;49.342;8.146;2022-09-14T07:15:24;7.00;;;4.93;;
823;SDS011;373;49.342;8.146;2022-09-14T07:17:53;5.68;;;4.82;;
823;SDS011;373;49.342;8.146;2022-09-14T07:20:20;5.00;;;3.85;;
823;SDS011;373;49.342;8.146;2022-09-14T07:22:47;6.00;;;3.75;;
823;SDS011;373;49.342;8.146;2022-09-14T07:25:14;5.88;;;5.32;;
823;SDS011;373;49.342;8.146;2022-09-14T07:27:41;6.90;;;4.75;;
823;SDS011;373;49.342;8.146;2022-09-14T07:30:08;5.70;;;4.53;;
823;SDS011;373;49.342;8.146;2022-09-14T07:32:36;5.18;;;3.97;;
823;SDS011;373;49.342;8.146;2022-09-14T07:35:05;5.88;;;4.70;;
823;SDS011;373;49.342;8.146;2022-09-14T07:37:32;6.93;;;4.93;;
823;SDS011;373;49.342;8.146;2022-09-14T07:40:00;5.15;;;4.65;;
823;SDS011;373;49.342;8.146;2022-09-14T07:42:27;6.60;;;4.97;;
823;SDS011;373;49.342;8.146;2022-09-14T07:44:56;5.00;;;4.55;;
823;SDS011;373;49.342;8.146;2022-09-14T07:47:23;5.30;;;4.43;;
823;SDS011;373;49.342;8.146;2022-09-14T07:49:50;5.00;;;4.40;;
823;SDS011;373;49.342;8.146;2022-09-14T07:52:18;5.13;;;4.72;;
823;SDS011;373;49.342;8.146;2022-09-14T07:54:45;5.65;;;4.88;;
823;SDS011;373;49.342;8.146;2022-09-14T07:57:12;6.13;;;5.60;;
823;SDS011;373;49.342;8.146;2022-09-14T07:59:40;6.15;;;5.57;;
823;SDS011;373;49.342;8.146;2022-09-14T08:02:08;7.22;;;6.20;;
823;SDS011;373;49.342;8.146;2022-09-14T08:04:36;6.22;;;5.72;;
823;SDS011;373;49.342;8.146;2022-09-14T08:07:04;6.30;;;5.25;;
823;SDS011;373;49.342;8.146;2022-09-14T08:09:33;5.68;;;5.18;;
823;SDS011;373;49.342;8.146;2022-09-14T08:12:00;4.65;;;4.28;;
823;SDS011;373;49.342;8.146;2022-09-14T08:14:30;5.50;;;5.00;;
823;SDS011;373;49.342;8.146;2022-09-14T08:16:57;6.05;;;5.45;;
823;SDS011;373;49.342;8.146;2022-09-14T08:19:25;6.50;;;5.90;;
823;SDS011;373;49.342;8.146;2022-09-14T08:21:52;4.78;;;4.35;;
823;SDS011;373;49.342;8.146;2022-09-14T08:24:20;5.18;;;4.68;;
823;SDS011;373;49.342;8.146;2022-09-14T08:26:49;6.00;;;5.32;;
823;SDS011;373;49.342;8.146;2022-09-14T08:29:16;5.03;;;4.50;;
823;SDS011;373;49.342;8.146;2022-09-14T08:31:44;4.78;;;4.40;;
823;SDS011;373;49.342;8.146;2022-09-14T08:34:12;6.53;;;4.88;;
823;SDS011;373;49.342;8.146;2022-09-14T08:36:40;5.07;;;4.68;;
823;SDS011;373;49.342;8.146;2022-09-14T08:39:09;5.15;;;4.65;;
823;SDS011;373;49.342;8.146;2022-09-14T08:41:39;5.20;;;4.43;;
823;SDS011;373;49.342;8.146;2022-09-14T08:44:15;4.78;;;4.40;;
823;SDS011;373;49.342;8.146;2022-09-14T08:46:46;4.88;;;4.47;;
823;SDS011;373;49.342;8.146;2022-09-14T08:49:17;4.93;;;4.50;;
823;SDS011;373;49.342;8.146;2022-09-14T08:51:48;4.88;;;4.32;;
823;SDS011;373;49.342;8.146;2022-09-14T08:54:16;6.57;;;5.15;;
823;SDS011;373;49.342;8.146;2022-09-14T08:56:44;4.97;;;4.57;;
823;SDS011;373;49.342;8.146;2022-09-14T08:59:22;5.00;;;4.47;;
823;SDS011;373;49.342;8.146;2022-09-14T09:02:06;5.93;;;4.63;;
823;SDS011;373;49.342;8.146;2022-09-14T09:04:50;4.55;;;3.70;;
823;SDS011;373;49.342;8.146;2022-09-14T09:07:21;5.00;;;4.50;;
823;SDS011;373;49.342;8.146;2022-09-14T09:09:54;5.15;;;4.40;;
823;SDS011;373;49.342;8.146;2022-09-14T09:12:24;4.55;;;4.00;;
823;SDS011;373;49.342;8.146;2022-09-14T09:15:00;4.95;;;3.80;;
823;SDS011;373;49.342;8.146;2022-09-14T09:17:32;3.97;;;3.58;;
823;SDS011;373;49.342;8.146;2022-09-14T09:20:06;4.88;;;3.30;;
823;SDS011;373;49.342;8.146;2022-09-14T09:22:40;4.65;;;4.15;;
823;SDS011;373;49.342;8.146;2022-09-14T09:25:13;4.57;;;4.15;;
823;SDS011;373;49.342;8.146;2022-09-14T09:27:44;4.15;;;3.80;;
823;SDS011;373;49.342;8.146;2022-09-14T09:30:14;4.05;;;3.75;;
823;SDS011;373;49.342;8.146;2022-09-14T09:32:42;4.70;;;4.30;;
823;SDS011;373;49.342;8.146;2022-09-14T09:35:29;4.30;;;4.00;;
823;SDS011;373;49.342;8.146;2022-09-14T09:38:00;3.90;;;3.60;;
823;SDS011;373;49.342;8.146;2022-09-14T09:40:35;3.72;;;3.50;;
823;SDS011;373;49.342;8.146;2022-09-14T09:43:10;6.22;;;4.15;;
823;SDS011;373;49.342;8.146;2022-09-14T09:45:46;3.92;;;3.63;;
823;SDS011;373;49.342;8.146;2022-09-14T09:48:16;4.07;;;3.28;;
823;SDS011;373;49.342;8.146;2022-09-14T09:50:46;4.65;;;3.28;;
823;SDS011;373;49.342;8.146;2022-09-14T09:53:17;3.20;;;2.90;;
823;SDS011;373;49.342;8.146;2022-09-14T09:55:47;3.92;;;3.22;;
823;SDS011;373;49.342;8.146;2022-09-14T09:58:22;4.38;;;3.30;;
823;SDS011;373;49.342;8.146;2022-09-14T10:00:56;3.70;;;2.53;;
823;SDS011;373;49.342;8.146;2022-09-14T10:03:28;3.58;;;2.92;;
823;SDS011;373;49.342;8.146;2022-09-14T10:05:59;3.60;;;2.78;;
823;SDS011;373;49.342;8.146;2022-09-14T10:08:31;3.00;;;2.80;;
823;SDS011;373;49.342;8.146;2022-09-14T10:11:00;3.25;;;2.55;;
823;SDS011;373;49.342;8.146;2022-09-14T10:13:29;3.13;;;2.80;;
823;SDS011;373;49.342;8.146;2022-09-14T10:16:06;3.13;;;2.92;;
823;SDS011;373;49.342;8.146;2022-09-14T10:18:42;3.10;;;2.80;;
823;SDS011;373;49.342;8.146;2022-09-14T10:21:11;5.00;;;2.78;;
823;SDS011;373;49.342;8.146;2022-09-14T10:23:39;3.58;;;2.35;;
823;SDS011;373;49.342;8.146;2022-09-14T10:26:22;2.13;;;2.00;;
823;SDS011;373;49.342;8.146;2022-09-14T10:28:52;2.78;;;2.13;;
823;SDS011;373;49.342;8.146;2022-09-14T10:31:28;3.33;;;2.38;;
823;SDS011;373;49.342;8.146;2022-09-14T10:33:58;3.50;;;3.05;;
823;SDS011;373;49.342;8.146;2022-09-14T10:36:27;2.63;;;2.20;;
823;SDS011;373;49.342;8.146;2022-09-14T10:38:56;3.55;;;2.22;;
823;SDS011;373;49.342;8.146;2022-09-14T10:41:30;2.83;;;2.10;;
823;SDS011;373;49.342;8.146;2022-09-14T10:44:11;2.95;;;2.15;;
823;SDS011;373;49.342;8.146;2022-09-14T10:47:09;3.28;;;2.42;;
823;SDS011;373;49.342;8.146;2022-09-14T10:49:50;4.13;;;2.70;;
823;SDS011;373;49.342;8.146;2022-09-14T10:52:33;2.72;;;2.20;;
823;SDS011;373;49.342;8.146;2022-09-14T10:55:18;3.58;;;2.40;;
823;SDS011;373;49.342;8.146;2022-09-14T10:57:58;6.05;;;2.72;;
823;SDS011;373;49.342;8.146;2022-09-14T11:00:39;3.85;;;2.33;;
823;SDS011;373;49.342;8.146;2022-09-14T11:03:21;4.32;;;2.45;;
823;SDS011;373;49.342;8.146;2022-09-14T11:05:58;3.28;;;2.55;;
823;SDS011;373;49.342;8.146;2022-09-14T11:08:35;3.92;;;2.10;;
823;SDS011;373;49.342;8.146;2022-09-14T11:11:18;3.40;;;2.15;;
823;SDS011;373;49.342;8.146;2022-09-14T11:13:55;4.82;;;2.50;;
823;SDS011;373;49.342;8.146;2022-09-14T11:16:38;3.63;;;2.00;;
823;SDS011;373;49.342;8.146;2022-09-14T11:19:18;3.13;;;1.90;;
823;SDS011;373;49.342;8.146;2022-09-14T11:21:55;2.75;;;2.13;;
823;SDS011;373;49.342;8.146;2022-09-14T11:24:29;2.28;;;2.05;;
823;SDS011;373;49.342;8.146;2022-09-14T11:27:03;2.30;;;2.10;;
823;SDS011;373;49.342;8.146;2022-09-14T11:29:35;2.78;;;2.00;;
823;SDS011;373;49.342;8.146;2022-09-14T11:32:08;2.45;;;2.10;;
823;SDS011;373;49.342;8.146;2022-09-14T11:34:42;2.30;;;2.10;;
823;SDS011;373;49.342;8.146;2022-09-14T11:37:13;3.72;;;2.10;;
823;SDS011;373;49.342;8.146;2022-09-14T11:39:43;3.35;;;2.08;;
823;SDS011;373;49.342;8.146;2022-09-14T11:42:15;2.42;;;2.22;;
823;SDS011;373;49.342;8.146;2022-09-14T11:44:49;2.35;;;2.03;;
823;SDS011;373;49.342;8.146;2022-09-14T11:47:20;5.65;;;2.50;;
823;SDS011;373;49.342;8.146;2022-09-14T11:49:52;1.85;;;1.60;;
823;SDS011;373;49.342;8.146;2022-09-14T11:52:24;2.80;;;2.05;;
823;SDS011;373;49.342;8.146;2022-09-14T11:54:53;2.50;;;2.30;;
823;SDS011;373;49.342;8.146;2022-09-14T11:57:21;2.15;;;1.95;;
823;SDS011;373;49.342;8.146;2022-09-14T11:59:51;2.47;;;1.85;;
823;SDS011;373;49.342;8.146;2022-09-14T12:08:27;2.72;;;2.40;;
823;SDS011;373;49.342;8.146;2022-09-14T12:11:22;3.25;;;1.80;;
823;SDS011;373;49.342;8.146;2022-09-14T12:14:11;3.50;;;2.30;;
823;SDS011;373;49.342;8.146;2022-09-14T12:19:48;3.38;;;2.38;;
823;SDS011;373;49.342;8.146;2022-09-14T12:22:18;3.40;;;2.45;;
823;SDS011;373;49.342;8.146;2022-09-14T12:25:03;3.58;;;2.20;;
823;SDS011;373;49.342;8.146;2022-09-14T12:27:41;2.92;;;2.40;;
823;SDS011;373;49.342;8.146;2022-09-14T12:33:39;2.28;;;2.08;;
823;SDS011;373;49.342;8.146;2022-09-14T12:36:10;4.28;;;2.08;;
823;SDS011;373;49.342;8.146;2022-09-14T12:39:06;2.42;;;1.83;;
823;SDS011;373;49.342;8.146;2022-09-14T12:44:53;3.80;;;1.83;;
823;SDS011;373;49.342;8.146;2022-09-14T12:50:25;2.88;;;2.10;;
823;SDS011;373;49.342;8.146;2022-09-14T12:53:01;2.72;;;1.90;;
823;SDS011;373;49.342;8.146;2022-09-14T12:55:43;1.92;;;1.83;;
823;SDS011;373;49.342;8.146;2022-09-14T12:58:21;3.03;;;2.15;;
823;SDS011;373;49.342;8.146;2022-09-14T13:00:58;3.60;;;1.90;;
823;SDS011;373;49.342;8.146;2022-09-14T13:03:45;2.95;;;1.70;;
823;SDS011;373;49.342;8.146;2022-09-14T13:06:16;2.35;;;2.08;;
823;SDS011;373;49.342;8.146;2022-09-14T13:08:44;3.30;;;1.80;;
823;SDS011;373;49.342;8.146;2022-09-14T13:11:19;2.38;;;1.80;;
823;SDS011;373;49.342;8.146;2022-09-14T13:13:48;2.28;;;1.70;;
823;SDS011;373;49.342;8.146;2022-09-14T13:16:17;3.92;;;1.67;;
823;SDS011;373;49.342;8.146;2022-09-14T13:18:48;3.63;;;1.85;;
823;SDS011;373;49.342;8.146;2022-09-14T13:21:25;4.97;;;2.40;;
823;SDS011;373;49.342;8.146;2022-09-14T13:23:52;4.07;;;1.95;;
823;SDS011;373;49.342;8.146;2022-09-14T13:26:20;2.78;;;1.83;;
823;SDS011;373;49.342;8.146;2022-09-14T13:28:51;1.90;;;1.75;;
823;SDS011;373;49.342;8.146;2022-09-14T13:31:21;3.00;;;1.85;;
823;SDS011;373;49.342;8.146;2022-09-14T13:33:54;3.50;;;2.00;;
823;SDS011;373;49.342;8.146;2022-09-14T13:36:22;2.60;;;2.15;;
823;SDS011;373;49.342;8.146;2022-09-14T13:38:52;2.50;;;2.13;;
823;SDS011;373;49.342;8.146;2022-09-14T13:41:21;3.20;;;2.00;;
823;SDS011;373;49.342;8.146;2022-09-14T13:43:49;3.20;;;2.15;;
823;SDS011;373;49.342;8.146;2022-09-14T13:46:20;2.45;;;2.00;;
823;SDS011;373;49.342;8.146;2022-09-14T13:48:48;4.82;;;1.75;;
823;SDS011;373;49.342;8.146;2022-09-14T13:51:20;3.10;;;2.13;;
823;SDS011;373;49.342;8.146;2022-09-14T13:53:49;3.67;;;1.63;;
823;SDS011;373;49.342;8.146;2022-09-14T13:56:21;2.67;;;1.60;;
823;SDS011;373;49.342;8.146;2022-09-14T14:01:56;2.85;;;1.52;;
823;SDS011;373;49.342;8.146;2022-09-14T14:04:25;1.92;;;1.55;;
823;SDS011;373;49.342;8.146;2022-09-14T14:07:04;1.38;;;1.02;;
823;SDS011;373;49.342;8.146;2022-09-14T14:09:40;1.83;;;1.17;;
823;SDS011;373;49.342;8.146;2022-09-14T14:12:13;1.58;;;1.35;;
823;SDS011;373;49.342;8.146;2022-09-14T14:14:52;1.30;;;1.20;;
823;SDS011;373;49.342;8.146;2022-09-14T14:17:24;1.67;;;1.40;;
823;SDS011;373;49.342;8.146;2022-09-14T14:19:59;2.67;;;1.23;;
823;SDS011;373;49.342;8.146;2022-09-14T14:22:58;1.55;;;1.10;;
823;SDS011;373;49.342;8.146;2022-09-14T14:25:29;2.60;;;1.10;;
823;SDS011;373;49.342;8.146;2022-09-14T14:28:00;2.78;;;1.10;;
823;SDS011;373;49.342;8.146;2022-09-14T14:30:29;1.83;;;1.63;;
823;SDS011;373;49.342;8.146;2022-09-14T14:32:56;1.95;;;1.17;;
823;SDS011;373;49.342;8.146;2022-09-14T14:35:25;2.70;;;1.15;;
823;SDS011;373;49.342;8.146;2022-09-14T14:37:55;1.48;;;1.08;;
823;SDS011;373;49.342;8.146;2022-09-14T14:40:22;3.20;;;1.25;;
823;SDS011;373;49.342;8.146;2022-09-14T14:42:51;2.33;;;1.25;;
823;SDS011;373;49.342;8.146;2022-09-14T14:45:21;3.20;;;1.20;;
823;SDS011;373;49.342;8.146;2022-09-14T14:47:50;2.72;;;1.40;;
823;SDS011;373;49.342;8.146;2022-09-14T14:50:19;0.90;;;0.90;;
823;SDS011;373;49.342;8.146;2022-09-14T14:52:48;2.67;;;1.52;;
823;SDS011;373;49.342;8.146;2022-09-14T14:55:16;2.83;;;1.42;;
823;SDS011;373;49.342;8.146;2022-09-14T14:57:45;3.10;;;1.70;;
823;SDS011;373;49.342;8.146;2022-09-14T15:00:13;1.10;;;1.00;;
823;SDS011;373;49.342;8.146;2022-09-14T15:02:43;2.08;;;1.08;;
823;SDS011;373;49.342;8.146;2022-09-14T15:05:11;1.98;;;0.77;;
823;SDS011;373;49.342;8.146;2022-09-14T15:07:38;2.35;;;1.20;;
823;SDS011;373;49.342;8.146;2022-09-14T15:10:06;1.85;;;1.70;;
823;SDS011;373;49.342;8.146;2022-09-14T15:12:34;1.30;;;1.17;;
823;SDS011;373;49.342;8.146;2022-09-14T15:15:02;2.63;;;1.40;;
823;SDS011;373;49.342;8.146;2022-09-14T15:17:29;1.92;;;1.05;;
823;SDS011;373;49.342;8.146;2022-09-14T15:19:57;1.75;;;1.10;;
823;SDS011;373;49.342;8.146;2022-09-14T15:22:24;2.78;;;1.70;;
823;SDS011;373;49.342;8.146;2022-09-14T15:24:51;4.00;;;1.77;;
823;SDS011;373;49.342;8.146;2022-09-14T15:27:18;2.92;;;1.50;;
823;SDS011;373;49.342;8.146;2022-09-14T15:29:45;2.33;;;1.73;;
823;SDS011;373;49.342;8.146;2022-09-14T15:32:12;1.80;;;1.45;;
823;SDS011;373;49.342;8.146;2022-09-14T15:34:39;2.38;;;1.80;;
823;SDS011;373;49.342;8.146;2022-09-14T15:37:08;2.80;;;1.77;;
823;SDS011;373;49.342;8.146;2022-09-14T15:39:35;1.98;;;1.80;;
823;SDS011;373;49.342;8.146;2022-09-14T15:42:02;2.50;;;2.30;;
823;SDS011;373;49.342;8.146;2022-09-14T15:44:30;2.63;;;1.98;;
823;SDS011;373;49.342;8.146;2022-09-14T15:46:58;3.28;;;2.45;;
823;SDS011;373;49.342;8.146;2022-09-14T15:49:25;2.38;;;2.17;;
823;SDS011;373;49.342;8.146;2022-09-14T15:51:53;3.15;;;2.58;;
823;SDS011;373;49.342;8.146;2022-09-14T15:54:23;2.50;;;2.30;;
823;SDS011;373;49.342;8.146;2022-09-14T15:56:52;3.83;;;2.33;;
823;SDS011;373;49.342;8.146;2022-09-14T15:59:21;4.57;;;2.78;;
823;SDS011;373;49.342;8.146;2022-09-14T16:01:49;2.67;;;2.47;;
823;SDS011;373;49.342;8.146;2022-09-14T16:04:16;3.42;;;3.05;;
823;SDS011;373;49.342;8.146;2022-09-14T16:06:43;3.55;;;2.45;;
823;SDS011;373;49.342;8.146;2022-09-14T16:09:12;3.15;;;2.60;;
823;SDS011;373;49.342;8.146;2022-09-14T16:11:41;3.33;;;2.63;;
823;SDS011;373;49.342;8.146;2022-09-14T16:14:09;3.88;;;2.55;;
823;SDS011;373;49.342;8.146;2022-09-14T16:16:36;2.67;;;2.47;;
823;SDS011;373;49.342;8.146;2022-09-14T16:19:04;3.53;;;2.25;;
823;SDS011;373;49.342;8.146;2022-09-14T16:21:31;4.57;;;2.20;;
823;SDS011;373;49.342;8.146;2022-09-14T16:23:59;2.95;;;2.58;;
823;SDS011;373;49.342;8.146;2022-09-14T16:26:28;4.90;;;2.65;;
823;SDS011;373;49.342;8.146;2022-09-14T16:28:58;3.10;;;2.22;;